Etusivu
METAR-TAF:

METAR-TAF

Lentoasemat :

Öljynporauslautta

Hoorn-a, Alankomaat

Leveyspiiri: 52-55-05N, Pituuspiiri: 4-09-01E, korkeus merenpinnasta: 41 m

Tämänhetkinen sää

Tämä raportti tehtiin 27 minuuttia sitten, kello 11.25 UTC
Tuuli 14 kn luoteesta
Lämpötila 14°C
Kosteus 77%
Ilmanpaine 1015 hPa
Näkyvyys 10 km tai enemmän
Muutamia pilviä 1500 ft:n korkeudessa
Hajanaisia pilviä 3600 ft:n korkeudessa
Hajonneita pilviä 4200 ft:n korkeudessa

METAR: EHQE 101125Z AUTO 32014KT 9999 FEW015 SCT036 BKN042 14/10 Q1015

Aika: 13:52 (11:52 UTC)


TAF: puuttuu

Säähavainnot ja -ennusteet yli 4000 lentoasemalta (METAR- ja TAF-raportit).

Käytössä olevat sääasemat on merkitty karttaan keltaisilla ja punaisilla pisteillä.

Aseta hiiri pisteen päälle nähdäksesi sääaseman nimen.

Klikkaa sitten nähdäksesi säähavainnot ja -ennusteet.

Kartan vaihtaminen: klikkaa mustalla rastilla varustettuja vihreitä pisteitä, niin voit zoomata sisään; viivalla varustettua vihreää pistettä, niin voit zoomata ulos tai vihreitä nuolia, niin pääset viereisille kartoille.


METAR-TAF: